»·PEaware :: N218GT KSBA-KBUR

N218GT :: KSBA-KBUR

FLIGHT INFORMATION

Flight Status: Arrived
Operator: Privately registered:
United States
More flights under this callsign
Pilot: Joe C. (19058)
Aircraft: EMBRAER BANDEIRANTE
(E110)
More flights by this aircraft type
Origin: KSBA Santa Barbara Mun
United States
Destination: KBUR Bob Hope-Burbank
United States
More flights between these airports :: More routes between these airports
Route: +HENER V186 FIM
File this flight plan on PilotEdge
Remarks: SBAP3
Altitude:
(Current/Filed)
9,000ft
Speed:
(Current/Filed)
180kts
Departed: 25-Sep-18 05:25 PM
Arrived: 25-Sep-18 05:58 PM
Distance/Time
Traveled:
74nm/0:32
Distance/Time
To Go:
Arrived

Flight Plot

Page will automatically refresh every two minutes.


Map Options




Map Legend


Flown Route
Filed Route
Departure Airport
Arrival Airport
Navaid (VOR, NDB)
Fix

Horizontal Profiles

Position Reports

Time Latitude Longitude Heading Altitude Ground
Speed
25-Sep-18 17:13 34.422635 -119.835581 340 11ft 0kts
25-Sep-18 17:14 34.422635 -119.835581 340 11ft 0kts
25-Sep-18 17:15 34.422635 -119.835581 340 11ft 0kts
25-Sep-18 17:16 34.422635 -119.835581 340 11ft 0kts
25-Sep-18 17:17 34.422635 -119.835581 340 11ft 0kts
25-Sep-18 17:18 34.422635 -119.835581 340 11ft 0kts
25-Sep-18 17:19 34.422635 -119.835581 340 11ft 0kts
25-Sep-18 17:20 34.422635 -119.835581 340 11ft 0kts
25-Sep-18 17:21 34.422635 -119.835581 340 11ft 0kts
25-Sep-18 17:22 34.422797 -119.835708 289 11ft 7kts
25-Sep-18 17:23 34.422770 -119.836060 260 11ft 0kts
25-Sep-18 17:24 34.422735 -119.836326 260 12ft 9kts
25-Sep-18 17:25 34.426722 -119.837438 88 11ft 20kts
25-Sep-18 17:26 34.427092 -119.834643 349 11ft 0kts
25-Sep-18 17:27 34.427703 -119.843997 267 56ft 107kts
25-Sep-18 17:28 34.424749 -119.889278 264 1454ft 141kts
25-Sep-18 17:29 34.409108 -119.917746 191 2778ft 140kts
25-Sep-18 17:30 34.382776 -119.898673 80 4161ft 151kts
25-Sep-18 17:31 34.386044 -119.849670 94 5434ft 139kts
25-Sep-18 17:32 34.384015 -119.804700 98 6292ft 131kts
25-Sep-18 17:33 34.380751 -119.762349 100 7173ft 123kts
25-Sep-18 17:34 34.377211 -119.721711 100 8116ft 117kts
25-Sep-18 17:35 34.373814 -119.684693 100 8907ft 115kts
25-Sep-18 17:36 34.369619 -119.638655 99 9009ft 159kts
25-Sep-18 17:37 34.364475 -119.582320 98 9003ft 175kts
25-Sep-18 17:38 34.358950 -119.522742 98 9001ft 180kts
25-Sep-18 17:39 34.353330 -119.462619 98 9001ft 180kts
25-Sep-18 17:40 34.347647 -119.402232 98 9003ft 180kts
25-Sep-18 17:41 34.341932 -119.341837 99 9006ft 181kts
25-Sep-18 17:42 34.336205 -119.281647 99 9007ft 181kts
25-Sep-18 17:43 34.331706 -119.221036 88 9005ft 183kts
25-Sep-18 17:44 34.336180 -119.159723 87 9003ft 183kts
25-Sep-18 17:45 34.340749 -119.098189 87 9000ft 183kts
25-Sep-18 17:46 34.345285 -119.036903 87 8998ft 183kts
25-Sep-18 17:47 34.349712 -118.976732 87 8998ft 181kts
25-Sep-18 17:48 34.354310 -118.913627 87 8293ft 209kts
25-Sep-18 17:49 34.345522 -118.843271 107 6910ft 210kts
25-Sep-18 17:50 34.327261 -118.782008 108 5506ft 182kts
25-Sep-18 17:51 34.307126 -118.729957 118 4206ft 162kts
25-Sep-18 17:52 34.287444 -118.679591 118 4108ft 171kts
25-Sep-18 17:53 34.266210 -118.627407 118 4093ft 174kts
25-Sep-18 17:54 34.243988 -118.575167 118 4085ft 175kts
25-Sep-18 17:55 34.219881 -118.520040 118 3075ft 186kts
25-Sep-18 17:56 34.199763 -118.471403 106 2430ft 123kts
25-Sep-18 17:57 34.198719 -118.431198 93 1729ft 102kts
25-Sep-18 17:58 34.198290 -118.398157 93 1236ft 94kts
25-Sep-18 17:59 34.197893 -118.365077 93 723ft 78kts
25-Sep-18 18:00 34.198427 -118.360379 351 718ft 0kts
25-Sep-18 18:01 34.199724 -118.364600 359 726ft 17kts
25-Sep-18 18:02 34.200279 -118.364903 137 727ft 0kts
25-Sep-18 18:03 34.200279 -118.364903 137 727ft 0kts
25-Sep-18 18:04 34.200279 -118.364903 137 727ft 0kts
25-Sep-18 18:05 34.200279 -118.364903 137 727ft 0kts

Navigation Log

Ident Type
1. KSBA Airport
2. HENER Fix
3. FIM Navaid
4. KBUR Airport